Accueil
METAR-TAF:

METAR-TAF

Aéroports :

Aéroport de Kangiqsualujjuaq

Kangiqsualujjuaq, Québec, Canada

latitude: 58-43N, longitude: 065-59W, altitude: 60 m

Observation

Le bulletin a été fait il y a 15 heures et 13 minutes, à 15:00 UTC
Vent 20 kt de ouest avec des rafales jusqu'à 25 kt
Température 8°C
Humidité 76%
Pression 1004 hPa
Visibilité: 19.3 km
Quelques nuages à une hauteur de 700 ft
Nuages fragmentés à une hauteur de 1600 ft
Nuages fragmentés à une hauteur de 2000 ft
Ciel couvert à une hauteur de 3100 ft
pluie faible, brume

METAR: CYLU 171500Z 28020G25KT 12SM -RA BR FEW007 BKN016 BKN020 OVC031 08/04 A2965 RMK ST2SC3SC2SC1 VIS N 4 SLP043

Heure: 02:13 (06:13 UTC)


TAF: absent

Observations et prévisions météorologiques de plus de 4000 aéroports (messages METAR et TAF).

Les stations disponibles sont représentées par des disques jaunes et rouges sur la carte.

Passer la souris dessus pour voir le nom de la station.

Cliquer dessus pour voir les observations et prévisions météorologiques.

Pour changer de carte: cliquez sur les boutons verts avec une croix noire pour zoomer, sur le bouton vert avec un tiret pour effectuer un zoom arrière, ou sur les flèches vertes pour les cartes adjacentes.


METAR-TAF: